sensor_id;sensor_type;location;lat;lon;timestamp;pressure;altitude;pressure_sealevel;temperature;humidity
40918;BME280;26644;50.248;19.032;2023-05-14T00:02:19;98553.47;;;9.89;62.52
40918;BME280;26644;50.248;19.032;2023-05-14T00:05:24;98551.53;;;9.90;62.24
40918;BME280;26644;50.248;19.032;2023-05-14T00:08:32;98550.19;;;9.82;62.57
40918;BME280;26644;50.248;19.032;2023-05-14T00:11:36;98538.34;;;9.76;62.71
40918;BME280;26644;50.248;19.032;2023-05-14T00:14:42;98544.69;;;9.72;62.84
40918;BME280;26644;50.248;19.032;2023-05-14T00:17:46;98537.25;;;9.67;63.01
40918;BME280;26644;50.248;19.032;2023-05-14T00:20:52;98536.97;;;9.64;63.32
40918;BME280;26644;50.248;19.032;2023-05-14T00:23:59;98540.53;;;9.59;63.61
40918;BME280;26644;50.248;19.032;2023-05-14T00:27:05;98527.63;;;9.49;63.76
40918;BME280;26644;50.248;19.032;2023-05-14T00:30:10;98533.66;;;9.51;63.84
40918;BME280;26644;50.248;19.032;2023-05-14T00:33:16;98531.44;;;9.43;63.66
40918;BME280;26644;50.248;19.032;2023-05-14T00:36:20;98530.06;;;9.45;63.65
40918;BME280;26644;50.248;19.032;2023-05-14T00:39:28;98521.03;;;9.45;64.00
40918;BME280;26644;50.248;19.032;2023-05-14T00:42:33;98525.97;;;9.43;63.77
40918;BME280;26644;50.248;19.032;2023-05-14T00:45:38;98528.41;;;9.44;64.08
40918;BME280;26644;50.248;19.032;2023-05-14T00:48:43;98526.78;;;9.38;64.22
40918;BME280;26644;50.248;19.032;2023-05-14T00:51:49;98527.03;;;9.32;64.47
40918;BME280;26644;50.248;19.032;2023-05-14T00:54:57;98528.66;;;9.33;64.74
40918;BME280;26644;50.248;19.032;2023-05-14T00:58:07;98533.59;;;9.31;64.79
40918;BME280;26644;50.248;19.032;2023-05-14T01:01:13;98532.72;;;9.25;64.53
40918;BME280;26644;50.248;19.032;2023-05-14T01:04:19;98547.81;;;9.27;64.72
40918;BME280;26644;50.248;19.032;2023-05-14T01:07:36;98544.25;;;9.27;64.76
40918;BME280;26644;50.248;19.032;2023-05-14T01:11:02;98546.72;;;9.28;64.89
40918;BME280;26644;50.248;19.032;2023-05-14T01:14:18;98548.66;;;9.28;64.77
40918;BME280;26644;50.248;19.032;2023-05-14T01:17:28;98543.13;;;9.18;64.80
40918;BME280;26644;50.248;19.032;2023-05-14T01:20:35;98536.25;;;9.10;64.96
40918;BME280;26644;50.248;19.032;2023-05-14T01:23:45;98538.16;;;9.09;64.97
40918;BME280;26644;50.248;19.032;2023-05-14T01:26:50;98531.00;;;9.03;65.35
40918;BME280;26644;50.248;19.032;2023-05-14T01:30:02;98545.78;;;9.02;65.65
40918;BME280;26644;50.248;19.032;2023-05-14T01:33:16;98534.19;;;8.90;65.67
40918;BME280;26644;50.248;19.032;2023-05-14T01:36:23;98545.66;;;8.82;66.04
40918;BME280;26644;50.248;19.032;2023-05-14T01:39:32;98542.91;;;8.76;66.26
40918;BME280;26644;50.248;19.032;2023-05-14T01:42:42;98541.47;;;8.69;66.44
40918;BME280;26644;50.248;19.032;2023-05-14T01:45:47;98534.88;;;8.65;66.62
40918;BME280;26644;50.248;19.032;2023-05-14T01:48:53;98539.78;;;8.62;67.03
40918;BME280;26644;50.248;19.032;2023-05-14T01:51:58;98537.03;;;8.57;67.00
40918;BME280;26644;50.248;19.032;2023-05-14T01:55:07;98524.41;;;8.51;66.85
40918;BME280;26644;50.248;19.032;2023-05-14T01:58:12;98533.44;;;8.52;66.65
40918;BME280;26644;50.248;19.032;2023-05-14T02:01:17;98525.75;;;8.49;66.95
40918;BME280;26644;50.248;19.032;2023-05-14T02:04:22;98535.84;;;8.43;67.06
40918;BME280;26644;50.248;19.032;2023-05-14T02:07:28;98512.81;;;8.34;67.45
40918;BME280;26644;50.248;19.032;2023-05-14T02:10:34;98522.41;;;8.36;67.85
40918;BME280;26644;50.248;19.032;2023-05-14T02:13:40;98518.81;;;8.36;67.94
40918;BME280;26644;50.248;19.032;2023-05-14T02:16:44;98519.38;;;8.38;68.36
40918;BME280;26644;50.248;19.032;2023-05-14T02:19:52;98517.19;;;8.40;68.21
40918;BME280;26644;50.248;19.032;2023-05-14T02:22:56;98517.19;;;8.40;68.27
40918;BME280;26644;50.248;19.032;2023-05-14T02:26:04;98516.88;;;8.31;68.36
40918;BME280;26644;50.248;19.032;2023-05-14T02:29:09;98522.06;;;8.27;68.75
40918;BME280;26644;50.248;19.032;2023-05-14T02:32:14;98524.19;;;8.20;69.32
40918;BME280;26644;50.248;19.032;2023-05-14T02:35:19;98521.69;;;8.19;69.32
40918;BME280;26644;50.248;19.032;2023-05-14T02:38:25;98513.97;;;8.10;69.25
40918;BME280;26644;50.248;19.032;2023-05-14T02:41:33;98510.22;;;8.17;69.19
40918;BME280;26644;50.248;19.032;2023-05-14T02:44:38;98511.88;;;8.18;69.31
40918;BME280;26644;50.248;19.032;2023-05-14T02:47:43;98507.22;;;8.18;69.22
40918;BME280;26644;50.248;19.032;2023-05-14T02:50:48;98508.59;;;8.21;68.91
40918;BME280;26644;50.248;19.032;2023-05-14T02:53:53;98509.38;;;8.16;69.00
40918;BME280;26644;50.248;19.032;2023-05-14T02:57:01;98498.69;;;8.15;69.04
40918;BME280;26644;50.248;19.032;2023-05-14T03:00:07;98503.66;;;8.18;69.22
40918;BME280;26644;50.248;19.032;2023-05-14T03:03:14;98501.75;;;8.18;69.25
40918;BME280;26644;50.248;19.032;2023-05-14T03:06:18;98487.97;;;8.08;69.35
40918;BME280;26644;50.248;19.032;2023-05-14T03:09:24;98488.81;;;8.08;69.38
40918;BME280;26644;50.248;19.032;2023-05-14T03:12:31;98493.72;;;8.06;69.67
40918;BME280;26644;50.248;19.032;2023-05-14T03:15:36;98481.16;;;8.10;69.80
40918;BME280;26644;50.248;19.032;2023-05-14T03:18:40;98473.53;;;8.13;69.46
40918;BME280;26644;50.248;19.032;2023-05-14T03:21:46;98476.34;;;8.23;69.31
40918;BME280;26644;50.248;19.032;2023-05-14T03:24:50;98473.63;;;8.23;69.54
40918;BME280;26644;50.248;19.032;2023-05-14T03:27:58;98476.34;;;8.28;70.01
40918;BME280;26644;50.248;19.032;2023-05-14T03:31:03;98483.28;;;8.41;69.56
40918;BME280;26644;50.248;19.032;2023-05-14T03:34:08;98488.56;;;8.53;69.22
40918;BME280;26644;50.248;19.032;2023-05-14T03:37:13;98486.13;;;8.56;69.18
40918;BME280;26644;50.248;19.032;2023-05-14T03:40:18;98475.25;;;8.67;69.00
40918;BME280;26644;50.248;19.032;2023-05-14T03:43:25;98478.59;;;8.79;68.84
40918;BME280;26644;50.248;19.032;2023-05-14T03:46:31;98477.00;;;8.93;68.38
40918;BME280;26644;50.248;19.032;2023-05-14T03:49:36;98475.72;;;9.11;68.09
40918;BME280;26644;50.248;19.032;2023-05-14T03:52:44;98476.09;;;9.41;67.54
40918;BME280;26644;50.248;19.032;2023-05-14T03:55:48;98470.94;;;9.75;66.04
40918;BME280;26644;50.248;19.032;2023-05-14T03:58:56;98473.66;;;9.96;65.58
40918;BME280;26644;50.248;19.032;2023-05-14T04:02:00;98466.81;;;10.24;65.02
40918;BME280;26644;50.248;19.032;2023-05-14T04:05:06;98485.69;;;10.62;64.05
40918;BME280;26644;50.248;19.032;2023-05-14T04:08:11;98486.16;;;10.90;63.19
40918;BME280;26644;50.248;19.032;2023-05-14T04:11:17;98477.59;;;11.07;61.76
40918;BME280;26644;50.248;19.032;2023-05-14T04:14:26;98483.50;;;11.30;61.67
40918;BME280;26644;50.248;19.032;2023-05-14T04:17:31;98477.13;;;11.39;60.51
40918;BME280;26644;50.248;19.032;2023-05-14T04:20:36;98487.53;;;11.48;60.04
40918;BME280;26644;50.248;19.032;2023-05-14T04:23:41;98485.59;;;11.53;60.39
40918;BME280;26644;50.248;19.032;2023-05-14T04:26:45;98489.06;;;11.69;60.05
40918;BME280;26644;50.248;19.032;2023-05-14T04:29:53;98484.59;;;11.78;59.06
40918;BME280;26644;50.248;19.032;2023-05-14T04:32:58;98485.13;;;11.75;59.24
40918;BME280;26644;50.248;19.032;2023-05-14T04:36:04;98483.09;;;11.91;58.79
40918;BME280;26644;50.248;19.032;2023-05-14T04:39:09;98486.16;;;12.24;58.14
40918;BME280;26644;50.248;19.032;2023-05-14T04:42:14;98491.81;;;12.68;56.42
40918;BME280;26644;50.248;19.032;2023-05-14T04:45:22;98484.16;;;13.08;55.44
40918;BME280;26644;50.248;19.032;2023-05-14T04:48:27;98485.75;;;13.57;53.36
40918;BME280;26644;50.248;19.032;2023-05-14T04:51:31;98480.88;;;14.06;52.75
40918;BME280;26644;50.248;19.032;2023-05-14T04:54:37;98486.91;;;14.41;51.58
40918;BME280;26644;50.248;19.032;2023-05-14T04:57:41;98498.50;;;14.57;50.85
40918;BME280;26644;50.248;19.032;2023-05-14T05:00:49;98482.84;;;14.53;50.37
40918;BME280;26644;50.248;19.032;2023-05-14T05:03:53;98475.44;;;14.34;50.78
40918;BME280;26644;50.248;19.032;2023-05-14T05:06:59;98482.09;;;14.14;51.58
40918;BME280;26644;50.248;19.032;2023-05-14T05:10:04;98479.31;;;14.00;51.95
40918;BME280;26644;50.248;19.032;2023-05-14T05:13:10;98474.00;;;14.04;52.09
40918;BME280;26644;50.248;19.032;2023-05-14T05:16:19;98479.31;;;14.33;52.03
40918;BME280;26644;50.248;19.032;2023-05-14T05:19:24;98478.91;;;15.01;50.88
40918;BME280;26644;50.248;19.032;2023-05-14T05:22:29;98474.97;;;15.80;48.94
40918;BME280;26644;50.248;19.032;2023-05-14T05:25:34;98488.78;;;16.71;46.41
40918;BME280;26644;50.248;19.032;2023-05-14T05:28:39;98488.47;;;17.21;44.68
40918;BME280;26644;50.248;19.032;2023-05-14T05:31:47;98481.25;;;17.60;43.14
40918;BME280;26644;50.248;19.032;2023-05-14T05:34:51;98476.81;;;17.94;42.11
40918;BME280;26644;50.248;19.032;2023-05-14T05:37:57;98488.09;;;17.89;41.87
40918;BME280;26644;50.248;19.032;2023-05-14T05:41:01;98486.31;;;18.02;42.18
40918;BME280;26644;50.248;19.032;2023-05-14T05:44:06;98477.59;;;18.39;42.17
40918;BME280;26644;50.248;19.032;2023-05-14T05:47:13;98480.97;;;18.71;40.47
40918;BME280;26644;50.248;19.032;2023-05-14T05:50:19;98484.47;;;18.98;40.63
40918;BME280;26644;50.248;19.032;2023-05-14T05:53:23;98476.94;;;19.28;39.16
40918;BME280;26644;50.248;19.032;2023-05-14T05:56:28;98488.41;;;19.26;39.18
40918;BME280;26644;50.248;19.032;2023-05-14T06:02:40;98490.44;;;19.47;38.78
40918;BME280;26644;50.248;19.032;2023-05-14T06:05:45;98489.03;;;19.83;38.53
40918;BME280;26644;50.248;19.032;2023-05-14T06:08:51;98494.00;;;20.20;37.60
40918;BME280;26644;50.248;19.032;2023-05-14T06:11:55;98491.69;;;19.58;38.31
40918;BME280;26644;50.248;19.032;2023-05-14T06:15:00;98474.34;;;19.74;38.32
40918;BME280;26644;50.248;19.032;2023-05-14T06:18:07;98471.88;;;20.48;38.23
40918;BME280;26644;50.248;19.032;2023-05-14T06:21:13;98474.78;;;21.35;36.79
40918;BME280;26644;50.248;19.032;2023-05-14T06:24:17;98470.94;;;22.05;35.57
40918;BME280;26644;50.248;19.032;2023-05-14T06:27:23;98482.81;;;22.74;34.32
40918;BME280;26644;50.248;19.032;2023-05-14T06:30:28;98472.53;;;23.11;34.12
40918;BME280;26644;50.248;19.032;2023-05-14T06:33:36;98474.69;;;23.33;32.64
40918;BME280;26644;50.248;19.032;2023-05-14T06:36:40;98476.50;;;23.41;32.74
40918;BME280;26644;50.248;19.032;2023-05-14T06:39:46;98477.94;;;23.35;32.05
40918;BME280;26644;50.248;19.032;2023-05-14T06:42:51;98454.19;;;23.29;32.18
40918;BME280;26644;50.248;19.032;2023-05-14T06:45:56;98469.53;;;23.35;33.01
40918;BME280;26644;50.248;19.032;2023-05-14T06:49:03;98474.97;;;23.44;32.42
40918;BME280;26644;50.248;19.032;2023-05-14T06:52:09;98479.56;;;23.20;31.91
40918;BME280;26644;50.248;19.032;2023-05-14T06:55:13;98480.38;;;22.73;32.16
40918;BME280;26644;50.248;19.032;2023-05-14T06:58:18;98478.13;;;22.79;32.63
40918;BME280;26644;50.248;19.032;2023-05-14T07:01:23;98453.28;;;23.09;32.42
40918;BME280;26644;50.248;19.032;2023-05-14T07:04:31;98455.50;;;23.51;31.78
40918;BME280;26644;50.248;19.032;2023-05-14T07:07:36;98466.00;;;23.74;31.31
40918;BME280;26644;50.248;19.032;2023-05-14T07:10:42;98463.06;;;23.67;30.88
40918;BME280;26644;50.248;19.032;2023-05-14T07:13:46;98467.16;;;23.53;31.14
40918;BME280;26644;50.248;19.032;2023-05-14T07:16:51;98466.78;;;23.74;31.75
40918;BME280;26644;50.248;19.032;2023-05-14T07:20:00;98471.03;;;23.84;31.31
40918;BME280;26644;50.248;19.032;2023-05-14T07:23:05;98480.19;;;23.46;30.92
40918;BME280;26644;50.248;19.032;2023-05-14T07:26:10;98477.47;;;22.69;32.09
40918;BME280;26644;50.248;19.032;2023-05-14T07:29:15;98490.84;;;22.76;32.14
40918;BME280;26644;50.248;19.032;2023-05-14T07:32:19;98476.69;;;22.40;32.67
40918;BME280;26644;50.248;19.032;2023-05-14T07:35:28;98489.50;;;22.70;32.63
40918;BME280;26644;50.248;19.032;2023-05-14T07:38:33;98470.63;;;22.83;32.51
40918;BME280;26644;50.248;19.032;2023-05-14T07:41:38;98482.34;;;22.00;33.13
40918;BME280;26644;50.248;19.032;2023-05-14T07:44:43;98483.03;;;21.97;33.88
40918;BME280;26644;50.248;19.032;2023-05-14T07:47:48;98482.19;;;21.68;34.58
40918;BME280;26644;50.248;19.032;2023-05-14T07:50:55;98467.56;;;21.99;34.19
40918;BME280;26644;50.248;19.032;2023-05-14T07:54:00;98462.22;;;22.83;33.15
40918;BME280;26644;50.248;19.032;2023-05-14T07:57:05;98469.81;;;23.66;32.19
40918;BME280;26644;50.248;19.032;2023-05-14T08:00:11;98472.16;;;24.38;31.25
40918;BME280;26644;50.248;19.032;2023-05-14T08:03:16;98451.00;;;24.64;30.65
40918;BME280;26644;50.248;19.032;2023-05-14T08:06:24;98455.78;;;25.10;30.16
40918;BME280;26644;50.248;19.032;2023-05-14T08:09:30;98450.69;;;25.43;29.75
40918;BME280;26644;50.248;19.032;2023-05-14T08:12:35;98445.72;;;25.59;29.69
40918;BME280;26644;50.248;19.032;2023-05-14T08:15:39;98455.03;;;25.67;29.33
40918;BME280;26644;50.248;19.032;2023-05-14T08:18:44;98444.13;;;25.62;29.71
40918;BME280;26644;50.248;19.032;2023-05-14T08:21:52;98437.84;;;26.02;29.29
40918;BME280;26644;50.248;19.032;2023-05-14T08:24:57;98432.44;;;26.20;28.90
40918;BME280;26644;50.248;19.032;2023-05-14T08:28:04;98424.09;;;26.31;29.28
40918;BME280;26644;50.248;19.032;2023-05-14T08:31:09;98421.63;;;26.26;28.79
40918;BME280;26644;50.248;19.032;2023-05-14T08:34:14;98420.28;;;26.54;28.84
40918;BME280;26644;50.248;19.032;2023-05-14T08:37:22;98418.84;;;27.19;27.58
40918;BME280;26644;50.248;19.032;2023-05-14T08:40:27;98422.81;;;27.78;27.56
40918;BME280;26644;50.248;19.032;2023-05-14T08:43:41;98423.78;;;28.11;26.85
40918;BME280;26644;50.248;19.032;2023-05-14T08:46:49;98411.81;;;28.46;26.20
40918;BME280;26644;50.248;19.032;2023-05-14T08:50:00;98423.56;;;28.84;26.02
40918;BME280;26644;50.248;19.032;2023-05-14T08:53:10;98417.47;;;28.57;25.88
40918;BME280;26644;50.248;19.032;2023-05-14T08:56:16;98420.66;;;28.45;26.45
40918;BME280;26644;50.248;19.032;2023-05-14T08:59:22;98418.72;;;28.81;25.40
40918;BME280;26644;50.248;19.032;2023-05-14T09:02:29;98422.34;;;28.71;25.14
40918;BME280;26644;50.248;19.032;2023-05-14T09:05:34;98407.34;;;28.42;25.32
40918;BME280;26644;50.248;19.032;2023-05-14T09:08:43;98390.75;;;28.15;25.75
40918;BME280;26644;50.248;19.032;2023-05-14T09:11:50;98395.13;;;27.94;25.97
40918;BME280;26644;50.248;19.032;2023-05-14T09:14:57;98403.59;;;27.94;26.34
40918;BME280;26644;50.248;19.032;2023-05-14T09:18:04;98402.81;;;28.04;26.62
40918;BME280;26644;50.248;19.032;2023-05-14T09:21:12;98394.38;;;28.19;26.42
40918;BME280;26644;50.248;19.032;2023-05-14T09:24:24;98394.38;;;28.12;26.77
40918;BME280;26644;50.248;19.032;2023-05-14T09:27:32;98400.88;;;28.30;26.04
40918;BME280;26644;50.248;19.032;2023-05-14T09:30:36;98397.59;;;28.17;25.63
40918;BME280;26644;50.248;19.032;2023-05-14T09:33:42;98391.41;;;27.76;26.01
40918;BME280;26644;50.248;19.032;2023-05-14T09:36:57;98380.50;;;27.63;26.38
40918;BME280;26644;50.248;19.032;2023-05-14T09:40:08;98374.03;;;27.66;26.12
40918;BME280;26644;50.248;19.032;2023-05-14T09:43:13;98394.09;;;27.50;26.42
40918;BME280;26644;50.248;19.032;2023-05-14T09:46:18;98385.22;;;27.45;26.37
40918;BME280;26644;50.248;19.032;2023-05-14T09:49:23;98375.63;;;27.64;26.93
40918;BME280;26644;50.248;19.032;2023-05-14T09:52:29;98369.63;;;27.69;25.43
40918;BME280;26644;50.248;19.032;2023-05-14T09:55:37;98370.91;;;27.12;25.79
40918;BME280;26644;50.248;19.032;2023-05-14T09:58:43;98376.59;;;27.23;26.22
40918;BME280;26644;50.248;19.032;2023-05-14T10:01:48;98379.63;;;27.52;25.85
40918;BME280;26644;50.248;19.032;2023-05-14T10:05:00;98366.44;;;27.81;24.99
40918;BME280;26644;50.248;19.032;2023-05-14T10:08:12;98360.75;;;27.63;23.72
40918;BME280;26644;50.248;19.032;2023-05-14T10:11:29;98346.06;;;26.73;24.71
40918;BME280;26644;50.248;19.032;2023-05-14T10:14:38;98342.88;;;26.30;25.80
40918;BME280;26644;50.248;19.032;2023-05-14T10:17:48;98329.06;;;26.59;26.25
40918;BME280;26644;50.248;19.032;2023-05-14T10:21:03;98326.06;;;26.85;25.95
40918;BME280;26644;50.248;19.032;2023-05-14T10:24:10;98327.59;;;26.72;26.32
40918;BME280;26644;50.248;19.032;2023-05-14T10:27:19;98313.03;;;26.66;26.40
40918;BME280;26644;50.248;19.032;2023-05-14T10:30:25;98315.53;;;26.30;26.39
40918;BME280;26644;50.248;19.032;2023-05-14T10:33:45;98315.53;;;25.89;27.04
40918;BME280;26644;50.248;19.032;2023-05-14T10:36:51;98306.47;;;25.08;27.24
40918;BME280;26644;50.248;19.032;2023-05-14T10:39:58;98302.75;;;24.23;28.25
40918;BME280;26644;50.248;19.032;2023-05-14T10:43:09;98296.78;;;23.82;29.42
40918;BME280;26644;50.248;19.032;2023-05-14T10:46:14;98295.03;;;23.54;29.51
40918;BME280;26644;50.248;19.032;2023-05-14T10:49:20;98292.19;;;23.31;29.09
40918;BME280;26644;50.248;19.032;2023-05-14T10:52:25;98276.09;;;22.73;29.76
40918;BME280;26644;50.248;19.032;2023-05-14T10:55:30;98281.16;;;22.83;30.16
40918;BME280;26644;50.248;19.032;2023-05-14T10:58:41;98284.28;;;22.82;30.27
40918;BME280;26644;50.248;19.032;2023-05-14T11:01:47;98272.97;;;22.58;30.33
40918;BME280;26644;50.248;19.032;2023-05-14T11:04:55;98262.25;;;22.13;30.86
40918;BME280;26644;50.248;19.032;2023-05-14T11:08:07;98279.91;;;22.01;30.74
40918;BME280;26644;50.248;19.032;2023-05-14T11:11:11;98272.38;;;22.01;30.80
40918;BME280;26644;50.248;19.032;2023-05-14T11:14:22;98275.59;;;22.03;30.56
40918;BME280;26644;50.248;19.032;2023-05-14T11:17:28;98270.38;;;22.02;30.71
40918;BME280;26644;50.248;19.032;2023-05-14T11:20:34;98267.03;;;21.96;30.96
40918;BME280;26644;50.248;19.032;2023-05-14T11:23:39;98253.84;;;21.97;31.11
40918;BME280;26644;50.248;19.032;2023-05-14T11:26:44;98253.59;;;22.02;31.13
40918;BME280;26644;50.248;19.032;2023-05-14T11:29:52;98256.78;;;21.56;31.69
40918;BME280;26644;50.248;19.032;2023-05-14T11:32:57;98256.78;;;21.28;32.26
40918;BME280;26644;50.248;19.032;2023-05-14T11:36:03;98261.16;;;21.57;32.01
40918;BME280;26644;50.248;19.032;2023-05-14T11:39:16;98252.94;;;21.77;31.73
40918;BME280;26644;50.248;19.032;2023-05-14T11:42:21;98243.94;;;21.83;31.72
40918;BME280;26644;50.248;19.032;2023-05-14T11:45:29;98246.38;;;21.85;31.98
40918;BME280;26644;50.248;19.032;2023-05-14T11:48:34;98248.69;;;21.67;32.94
40918;BME280;26644;50.248;19.032;2023-05-14T11:51:39;98246.31;;;21.24;33.61
40918;BME280;26644;50.248;19.032;2023-05-14T11:54:44;98235.81;;;21.34;33.29
40918;BME280;26644;50.248;19.032;2023-05-14T11:57:50;98239.53;;;21.38;32.46
40918;BME280;26644;50.248;19.032;2023-05-14T12:00:57;98231.69;;;21.43;30.06
40918;BME280;26644;50.248;19.032;2023-05-14T12:04:04;98221.53;;;21.51;30.69
40918;BME280;26644;50.248;19.032;2023-05-14T12:07:11;98230.66;;;21.64;29.85
40918;BME280;26644;50.248;19.032;2023-05-14T12:10:18;98214.06;;;21.71;30.02
40918;BME280;26644;50.248;19.032;2023-05-14T12:13:25;98220.88;;;21.86;30.11
40918;BME280;26644;50.248;19.032;2023-05-14T12:16:33;98195.53;;;21.79;30.55
40918;BME280;26644;50.248;19.032;2023-05-14T12:19:39;98196.44;;;21.83;30.48
40918;BME280;26644;50.248;19.032;2023-05-14T12:22:45;98201.03;;;21.91;30.67
40918;BME280;26644;50.248;19.032;2023-05-14T12:25:50;98194.91;;;22.02;30.46
40918;BME280;26644;50.248;19.032;2023-05-14T12:28:56;98182.81;;;22.14;29.81
40918;BME280;26644;50.248;19.032;2023-05-14T12:32:07;98182.44;;;22.15;29.47
40918;BME280;26644;50.248;19.032;2023-05-14T12:35:13;98188.16;;;22.03;29.54
40918;BME280;26644;50.248;19.032;2023-05-14T12:38:17;98170.09;;;22.00;30.30
40918;BME280;26644;50.248;19.032;2023-05-14T12:41:23;98173.72;;;22.17;30.40
40918;BME280;26644;50.248;19.032;2023-05-14T12:44:27;98177.13;;;22.26;30.62
40918;BME280;26644;50.248;19.032;2023-05-14T12:47:35;98167.66;;;21.67;30.47
40918;BME280;26644;50.248;19.032;2023-05-14T12:50:40;98161.81;;;21.72;30.64
40918;BME280;26644;50.248;19.032;2023-05-14T12:53:45;98155.63;;;21.79;30.72
40918;BME280;26644;50.248;19.032;2023-05-14T12:56:51;98148.66;;;21.72;31.04
40918;BME280;26644;50.248;19.032;2023-05-14T12:59:57;98135.03;;;21.55;31.79
40918;BME280;26644;50.248;19.032;2023-05-14T13:03:04;98143.59;;;21.62;32.16
40918;BME280;26644;50.248;19.032;2023-05-14T13:06:09;98134.50;;;21.65;31.82
40918;BME280;26644;50.248;19.032;2023-05-14T13:09:14;98130.63;;;21.70;31.44
40918;BME280;26644;50.248;19.032;2023-05-14T13:12:19;98136.56;;;21.68;31.31
40918;BME280;26644;50.248;19.032;2023-05-14T13:15:23;98139.47;;;21.56;31.93
40918;BME280;26644;50.248;19.032;2023-05-14T13:18:31;98138.84;;;21.63;32.04
40918;BME280;26644;50.248;19.032;2023-05-14T13:21:36;98136.44;;;21.77;32.38
40918;BME280;26644;50.248;19.032;2023-05-14T13:24:41;98123.25;;;21.78;32.22
40918;BME280;26644;50.248;19.032;2023-05-14T13:27:46;98134.41;;;21.94;32.29
40918;BME280;26644;50.248;19.032;2023-05-14T13:31:06;98122.97;;;21.67;32.88
40918;BME280;26644;50.248;19.032;2023-05-14T13:34:14;98119.09;;;21.71;32.92
40918;BME280;26644;50.248;19.032;2023-05-14T13:37:19;98102.69;;;21.70;33.11
40918;BME280;26644;50.248;19.032;2023-05-14T13:40:24;98110.34;;;21.73;33.29
40918;BME280;26644;50.248;19.032;2023-05-14T13:43:30;98102.16;;;21.80;33.64
40918;BME280;26644;50.248;19.032;2023-05-14T13:46:35;98096.06;;;21.74;33.87
40918;BME280;26644;50.248;19.032;2023-05-14T13:49:43;98094.66;;;21.68;34.26
40918;BME280;26644;50.248;19.032;2023-05-14T13:52:47;98083.25;;;21.57;34.89
40918;BME280;26644;50.248;19.032;2023-05-14T13:55:53;98068.53;;;21.61;34.96
40918;BME280;26644;50.248;19.032;2023-05-14T13:59:01;98053.88;;;21.48;35.07
40918;BME280;26644;50.248;19.032;2023-05-14T14:02:07;98049.03;;;21.29;35.47
40918;BME280;26644;50.248;19.032;2023-05-14T14:05:14;98049.66;;;21.22;35.43
40918;BME280;26644;50.248;19.032;2023-05-14T14:08:20;98066.50;;;21.41;35.14
40918;BME280;26644;50.248;19.032;2023-05-14T14:11:24;98043.69;;;21.39;35.02
40918;BME280;26644;50.248;19.032;2023-05-14T14:14:29;98047.84;;;21.46;34.87
40918;BME280;26644;50.248;19.032;2023-05-14T14:17:37;98047.66;;;21.38;34.80
40918;BME280;26644;50.248;19.032;2023-05-14T14:20:45;98033.38;;;21.24;35.02
40918;BME280;26644;50.248;19.032;2023-05-14T14:23:49;98035.69;;;21.22;35.01
40918;BME280;26644;50.248;19.032;2023-05-14T14:26:55;98033.53;;;21.15;35.16
40918;BME280;26644;50.248;19.032;2023-05-14T14:29:59;98035.53;;;21.15;35.11
40918;BME280;26644;50.248;19.032;2023-05-14T14:33:04;98012.38;;;21.14;34.98
40918;BME280;26644;50.248;19.032;2023-05-14T14:36:11;98014.88;;;21.19;35.02
40918;BME280;26644;50.248;19.032;2023-05-14T14:39:16;98014.16;;;21.22;35.51
40918;BME280;26644;50.248;19.032;2023-05-14T14:42:21;98016.97;;;21.06;35.81
40918;BME280;26644;50.248;19.032;2023-05-14T14:45:26;98004.06;;;20.86;36.10
40918;BME280;26644;50.248;19.032;2023-05-14T14:48:32;98000.88;;;20.71;36.56
40918;BME280;26644;50.248;19.032;2023-05-14T14:51:41;97993.22;;;20.52;37.08
40918;BME280;26644;50.248;19.032;2023-05-14T14:54:46;97987.78;;;20.43;37.18
40918;BME280;26644;50.248;19.032;2023-05-14T14:57:52;97968.72;;;20.46;37.39
40918;BME280;26644;50.248;19.032;2023-05-14T15:00:57;97958.78;;;20.32;37.32
40918;BME280;26644;50.248;19.032;2023-05-14T15:04:02;97963.69;;;20.35;37.42
40918;BME280;26644;50.248;19.032;2023-05-14T15:07:09;97961.41;;;20.25;37.15
40918;BME280;26644;50.248;19.032;2023-05-14T15:10:16;97953.66;;;20.18;37.06
40918;BME280;26644;50.248;19.032;2023-05-14T15:13:21;97963.72;;;20.23;36.84
40918;BME280;26644;50.248;19.032;2023-05-14T15:16:27;97963.81;;;20.26;36.94
40918;BME280;26644;50.248;19.032;2023-05-14T15:19:32;97952.06;;;20.33;36.98
40918;BME280;26644;50.248;19.032;2023-05-14T15:22:40;97968.25;;;20.28;37.12
40918;BME280;26644;50.248;19.032;2023-05-14T15:25:45;97964.63;;;20.27;36.80
40918;BME280;26644;50.248;19.032;2023-05-14T15:28:50;97971.38;;;20.26;37.00
40918;BME280;26644;50.248;19.032;2023-05-14T15:31:55;97970.41;;;20.34;37.04
40918;BME280;26644;50.248;19.032;2023-05-14T15:35:00;97962.50;;;20.36;36.75
40918;BME280;26644;50.248;19.032;2023-05-14T15:38:07;97949.16;;;20.30;36.93
40918;BME280;26644;50.248;19.032;2023-05-14T15:41:13;97944.22;;;20.23;36.80
40918;BME280;26644;50.248;19.032;2023-05-14T15:44:17;97951.31;;;20.20;36.81
40918;BME280;26644;50.248;19.032;2023-05-14T15:47:23;97947.72;;;20.20;36.75
40918;BME280;26644;50.248;19.032;2023-05-14T15:50:27;97948.66;;;20.12;36.65
40918;BME280;26644;50.248;19.032;2023-05-14T15:53:35;97938.56;;;20.07;36.59
40918;BME280;26644;50.248;19.032;2023-05-14T15:56:39;97938.91;;;20.05;36.79
40918;BME280;26644;50.248;19.032;2023-05-14T15:59:45;97931.28;;;20.02;36.80
40918;BME280;26644;50.248;19.032;2023-05-14T16:02:50;97912.94;;;20.01;36.73
40918;BME280;26644;50.248;19.032;2023-05-14T16:05:56;97905.75;;;20.00;36.64
40918;BME280;26644;50.248;19.032;2023-05-14T16:09:03;97908.53;;;20.00;36.86
40918;BME280;26644;50.248;19.032;2023-05-14T16:12:08;97899.63;;;19.95;36.66
40918;BME280;26644;50.248;19.032;2023-05-14T16:15:13;97906.16;;;19.86;37.00
40918;BME280;26644;50.248;19.032;2023-05-14T16:18:18;97916.69;;;19.93;37.08
40918;BME280;26644;50.248;19.032;2023-05-14T16:21:25;97914.03;;;19.97;37.10